createdAt,value
2018-11-20T00:00:25.237Z,17.13
2018-11-20T00:03:14.328Z,17.50
2018-11-20T00:06:17.005Z,16.03
2018-11-20T00:09:12.702Z,15.83
2018-11-20T00:12:05.203Z,15.60
2018-11-20T00:15:06.733Z,14.97
2018-11-20T00:17:47.809Z,14.80
2018-11-20T00:20:49.395Z,14.73
2018-11-20T00:23:33.530Z,14.33
2018-11-20T00:26:32.429Z,14.93
2018-11-20T00:29:12.664Z,14.17
2018-11-20T00:32:02.221Z,14.17
2018-11-20T00:34:57.527Z,13.97
2018-11-20T00:37:47.041Z,13.70
2018-11-20T00:40:42.560Z,12.43
2018-11-20T00:43:40.257Z,14.27
2018-11-20T00:46:39.031Z,13.93
2018-11-20T00:49:27.769Z,14.47
2018-11-20T00:52:30.105Z,14.03
2018-11-20T00:55:34.792Z,13.97
2018-11-20T00:58:23.129Z,14.90
2018-11-20T01:01:22.853Z,15.77
2018-11-20T01:04:14.223Z,15.13
2018-11-20T01:07:00.179Z,16.10
2018-11-20T01:09:47.430Z,15.63
2018-11-20T01:12:42.633Z,16.47
2018-11-20T01:15:35.078Z,15.40
2018-11-20T01:18:23.417Z,15.07
2018-11-20T01:21:11.415Z,14.67
2018-11-20T01:24:00.588Z,14.37
2018-11-20T01:26:44.682Z,14.47
2018-11-20T01:29:36.690Z,14.37
2018-11-20T01:32:32.138Z,14.60
2018-11-20T01:35:28.362Z,13.83
2018-11-20T01:38:22.615Z,12.90
2018-11-20T01:41:03.352Z,13.10
2018-11-20T01:43:51.050Z,13.07
2018-11-20T01:46:30.934Z,12.53
2018-11-20T01:49:11.127Z,12.73
2018-11-20T01:51:53.603Z,11.83
2018-11-20T01:54:39.115Z,11.93
2018-11-20T01:57:27.452Z,12.10
2018-11-20T02:00:14.093Z,12.27
2018-11-20T02:03:13.265Z,12.60
2018-11-20T02:06:01.355Z,10.73
2018-11-20T02:09:00.885Z,11.57
2018-11-20T02:12:03.741Z,11.40
2018-11-20T02:15:00.001Z,11.43
2018-11-20T02:18:04.998Z,10.93
2018-11-20T02:20:56.556Z,10.87
2018-11-20T02:23:35.966Z,12.53
2018-11-20T02:26:17.905Z,10.93
2018-11-20T02:29:10.256Z,12.47
2018-11-20T02:32:11.944Z,13.33
2018-11-20T02:35:16.485Z,13.17
2018-11-20T02:38:06.029Z,11.80
2018-11-20T02:40:54.411Z,13.50
2018-11-20T02:43:43.134Z,13.33
2018-11-20T02:46:42.026Z,12.83
2018-11-20T02:49:30.179Z,14.33
2018-11-20T02:52:37.877Z,14.40
2018-11-20T02:55:30.328Z,15.50
2018-11-20T02:58:29.632Z,16.93
2018-11-20T03:01:10.462Z,16.03
2018-11-20T03:04:06.161Z,18.03
2018-11-20T03:07:05.674Z,17.83
2018-11-20T03:10:04.516Z,17.23
2018-11-20T03:12:59.714Z,19.90
2018-11-20T03:16:04.123Z,19.43
2018-11-20T03:18:45.826Z,18.83
2018-11-20T03:21:35.444Z,17.70
2018-11-20T03:24:23.277Z,20.33
2018-11-20T03:27:28.856Z,19.63
2018-11-20T03:30:56.240Z,19.33
2018-11-20T03:33:46.456Z,19.57
2018-11-20T03:36:46.615Z,19.57
2018-11-20T03:39:48.430Z,19.53
2018-11-20T03:42:25.607Z,19.63
2018-11-20T03:45:23.970Z,18.87
2018-11-20T03:48:12.085Z,20.30
2018-11-20T03:51:04.330Z,18.83
2018-11-20T03:53:56.257Z,18.33
2018-11-20T03:56:45.555Z,18.43
2018-11-20T03:59:36.377Z,17.50
2018-11-20T04:02:44.358Z,17.63
2018-11-20T04:05:42.946Z,16.10
2018-11-20T04:08:33.047Z,15.97
2018-11-20T04:11:45.714Z,15.47
2018-11-20T04:14:34.236Z,15.37
2018-11-20T04:17:27.987Z,16.23
2018-11-20T04:20:16.740Z,15.53
2018-11-20T04:23:04.707Z,16.13
2018-11-20T04:25:54.023Z,15.20
2018-11-20T04:28:46.519Z,15.80
2018-11-20T04:32:02.530Z,15.60
2018-11-20T04:35:01.060Z,15.70
2018-11-20T04:37:49.225Z,17.50
2018-11-20T04:40:50.882Z,17.30
2018-11-20T04:43:39.140Z,19.63
2018-11-20T04:46:29.357Z,17.73
2018-11-20T04:49:19.843Z,23.33
2018-11-20T04:52:02.278Z,19.40
2018-11-20T04:54:54.643Z,17.90
2018-11-20T04:57:42.933Z,16.63
2018-11-20T05:00:26.190Z,17.43
2018-11-20T05:03:05.809Z,19.77
2018-11-20T05:05:54.265Z,18.97
2018-11-20T05:08:43.553Z,20.17
2018-11-20T05:11:35.969Z,20.30
2018-11-20T05:14:35.565Z,18.67
2018-11-20T05:17:27.754Z,19.90
2018-11-20T05:20:18.208Z,19.00
2018-11-20T05:23:12.366Z,19.53
2018-11-20T05:26:20.008Z,18.90
2018-11-20T05:29:08.162Z,18.30
2018-11-20T05:32:01.545Z,19.53
2018-11-20T05:34:50.081Z,18.13
2018-11-20T05:37:46.762Z,18.77
2018-11-20T05:40:45.175Z,18.77
2018-11-20T05:43:34.350Z,17.17
2018-11-20T05:46:31.309Z,19.23
2018-11-20T05:49:19.737Z,19.50
2018-11-20T05:52:19.530Z,18.23
2018-11-20T05:54:58.688Z,17.63
2018-11-20T05:57:47.214Z,18.83
2018-11-20T06:00:36.659Z,18.47
2018-11-20T06:03:25.407Z,17.20
2018-11-20T06:06:12.911Z,18.37
2018-11-20T06:09:17.566Z,17.10
2018-11-20T06:12:25.104Z,17.60
2018-11-20T06:15:20.723Z,18.80
2018-11-20T06:18:25.341Z,17.23
2018-11-20T06:21:13.089Z,17.47
2018-11-20T06:24:02.683Z,17.57
2018-11-20T06:27:07.132Z,17.90
2018-11-20T06:29:56.761Z,17.90
2018-11-20T06:32:55.258Z,17.13
2018-11-20T06:35:54.821Z,18.50
2018-11-20T06:38:50.010Z,17.87
2018-11-20T06:41:40.580Z,16.53
2018-11-20T06:44:30.165Z,16.23
2018-11-20T06:47:18.208Z,15.37
2018-11-20T06:50:07.564Z,16.07
2018-11-20T06:53:13.093Z,16.40
2018-11-20T06:56:09.141Z,15.70
2018-11-20T06:59:07.590Z,14.80
2018-11-20T07:02:06.206Z,39.77
2018-11-20T07:05:01.463Z,21.13
2018-11-20T07:07:55.559Z,20.20
2018-11-20T07:10:50.830Z,16.67
2018-11-20T07:13:57.659Z,15.20
2018-11-20T07:16:50.649Z,14.90
2018-11-20T07:19:45.349Z,14.53
2018-11-20T07:22:50.862Z,13.77
2018-11-20T07:25:55.538Z,13.27
2018-11-20T07:28:40.332Z,13.03
2018-11-20T07:31:33.244Z,12.73
2018-11-20T07:34:25.858Z,11.37
2018-11-20T07:37:23.607Z,11.60
2018-11-20T07:40:18.799Z,11.90
2018-11-20T07:43:15.272Z,11.80
2018-11-20T07:46:16.868Z,11.90
2018-11-20T07:49:09.105Z,12.77
2018-11-20T07:52:01.663Z,12.93
2018-11-20T07:54:46.223Z,12.23
2018-11-20T07:57:49.289Z,12.43
2018-11-20T08:00:36.533Z,12.83
2018-11-20T08:03:35.065Z,12.90
2018-11-20T08:06:23.279Z,13.20
2018-11-20T08:09:12.808Z,12.67
2018-11-20T08:11:56.663Z,12.20
2018-11-20T08:14:44.726Z,12.60
2018-11-20T08:17:37.714Z,12.87
2018-11-20T08:20:30.703Z,12.47
2018-11-20T08:23:19.137Z,12.67
2018-11-20T08:26:11.959Z,12.00
2018-11-20T08:29:00.902Z,10.97
2018-11-20T08:32:02.364Z,11.40
2018-11-20T08:35:04.047Z,48.07
2018-11-20T08:37:59.332Z,15.20
2018-11-20T08:41:07.228Z,11.33
2018-11-20T08:44:08.677Z,10.83
2018-11-20T08:46:53.298Z,12.60
2018-11-20T08:49:41.430Z,13.63
2018-11-20T08:52:29.784Z,13.33
2018-11-20T08:55:17.754Z,13.17
2018-11-20T08:58:05.906Z,12.23
2018-11-20T09:01:01.359Z,10.10
2018-11-20T09:04:03.033Z,9.13
2018-11-20T09:06:47.083Z,8.53
2018-11-20T09:09:36.528Z,7.80
2018-11-20T09:12:38.858Z,7.57
2018-11-20T09:15:27.031Z,7.47
2018-11-20T09:18:10.908Z,7.20
2018-11-20T09:20:59.070Z,6.80
2018-11-20T09:24:06.602Z,6.67
2018-11-20T09:26:54.649Z,6.90
2018-11-20T09:29:43.651Z,7.93
2018-11-20T09:32:45.962Z,8.60
2018-11-20T09:35:33.979Z,9.03
2018-11-20T09:38:21.979Z,10.77
2018-11-20T09:41:20.285Z,16.60
2018-11-20T09:44:18.675Z,23.20
2018-11-20T09:47:17.603Z,15.40
2018-11-20T09:50:15.850Z,11.20
2018-11-20T09:53:20.733Z,12.43
2018-11-20T09:56:14.792Z,10.97
2018-11-20T09:59:13.592Z,8.83
2018-11-20T10:02:00.419Z,9.47
2018-11-20T10:04:49.930Z,7.63
2018-11-20T10:07:40.250Z,7.70
2018-11-20T10:10:29.736Z,6.77
2018-11-20T10:13:19.321Z,6.03
2018-11-20T10:16:11.743Z,5.13
2018-11-20T10:19:00.023Z,5.07
2018-11-20T10:22:03.485Z,4.43
2018-11-20T10:24:51.735Z,4.90
2018-11-20T10:27:39.852Z,4.27
2018-11-20T10:30:32.493Z,4.40
2018-11-20T10:33:39.948Z,3.60
2018-11-20T10:36:32.466Z,3.10
2018-11-20T10:39:32.003Z,3.03
2018-11-20T10:42:21.551Z,2.90
2018-11-20T10:45:15.877Z,2.70
2018-11-20T10:48:04.910Z,2.77
2018-11-20T10:50:53.710Z,2.43
2018-11-20T10:53:38.143Z,2.17
2018-11-20T10:56:21.426Z,2.00
2018-11-20T10:59:16.399Z,2.10
2018-11-20T11:02:24.624Z,2.63
2018-11-20T11:05:14.871Z,18.13
2018-11-20T11:08:03.298Z,4.63
2018-11-20T11:11:03.910Z,2.13
2018-11-20T11:13:52.626Z,2.07
2018-11-20T11:16:41.043Z,1.80
2018-11-20T11:19:33.261Z,2.00
2018-11-20T11:22:23.531Z,2.20
2018-11-20T11:25:09.741Z,2.23
2018-11-20T11:28:08.136Z,2.03
2018-11-20T11:30:57.622Z,1.80
2018-11-20T11:33:45.760Z,1.60
2018-11-20T11:36:35.919Z,1.80
2018-11-20T11:39:30.750Z,2.00
2018-11-20T11:42:19.880Z,2.13
2018-11-20T11:45:13.360Z,2.47
2018-11-20T11:48:13.086Z,2.07
2018-11-20T11:51:06.344Z,2.67
2018-11-20T11:54:14.289Z,2.37
2018-11-20T11:56:58.967Z,2.70
2018-11-20T12:00:02.614Z,3.23
2018-11-20T12:05:55.979Z,3.07
2018-11-20T12:08:39.385Z,3.33
2018-11-20T12:11:28.510Z,4.27
2018-11-20T12:14:16.584Z,3.97
2018-11-20T12:17:12.705Z,4.67
2018-11-20T12:20:01.101Z,4.20
2018-11-20T12:22:42.392Z,4.10
2018-11-20T12:25:23.884Z,4.53
2018-11-20T12:28:25.604Z,4.57
2018-11-20T12:31:33.574Z,7.83
2018-11-20T12:34:41.153Z,4.50
2018-11-20T12:37:31.112Z,4.23
2018-11-20T12:40:32.868Z,4.53
2018-11-20T12:43:19.149Z,4.00
2018-11-20T12:46:16.406Z,4.60
2018-11-20T12:49:12.415Z,5.20
2018-11-20T12:52:16.559Z,5.13
2018-11-20T12:54:56.910Z,4.70
2018-11-20T12:57:44.794Z,4.70
2018-11-20T13:00:31.165Z,6.40
2018-11-20T13:03:36.046Z,31.40
2018-11-20T13:06:28.600Z,11.03
2018-11-20T13:09:12.021Z,6.70
2018-11-20T13:12:07.277Z,5.77
2018-11-20T13:14:56.787Z,6.40
2018-11-20T13:17:45.201Z,7.07
2018-11-20T13:20:33.335Z,7.17
2018-11-20T13:23:21.607Z,7.47
2018-11-20T13:26:17.526Z,6.70
2018-11-20T13:29:16.334Z,5.53
2018-11-20T13:32:05.311Z,4.93
2018-11-20T13:35:00.961Z,4.70
2018-11-20T13:37:53.227Z,4.87
2018-11-20T13:41:21.250Z,4.30
2018-11-20T13:44:05.385Z,3.87
2018-11-20T13:46:58.300Z,4.20
2018-11-20T13:49:53.742Z,3.67
2018-11-20T13:52:43.308Z,3.77
2018-11-20T13:55:33.902Z,4.37
2018-11-20T13:58:42.130Z,4.50
2018-11-20T14:01:30.538Z,4.43
2018-11-20T14:04:18.667Z,4.40
2018-11-20T14:07:06.867Z,4.03
2018-11-20T14:09:56.232Z,4.40
2018-11-20T14:12:44.388Z,4.37
2018-11-20T14:15:32.853Z,5.23
2018-11-20T14:18:31.162Z,5.60
2018-11-20T14:21:19.613Z,5.07
2018-11-20T14:24:07.940Z,4.80
2018-11-20T14:27:05.347Z,5.33
2018-11-20T14:30:04.173Z,43.50
2018-11-20T14:33:12.130Z,6.77
2018-11-20T14:36:00.111Z,4.80
2018-11-20T14:38:48.328Z,6.00
2018-11-20T14:41:38.828Z,4.97
2018-11-20T14:44:23.398Z,4.87
2018-11-20T14:47:21.708Z,5.10
2018-11-20T14:50:10.735Z,5.07
2018-11-20T14:52:54.380Z,5.40
2018-11-20T14:55:44.282Z,5.60
2018-11-20T14:58:37.021Z,5.80
2018-11-20T15:01:35.618Z,5.13
2018-11-20T15:04:21.861Z,5.43
2018-11-20T15:07:14.109Z,5.93
2018-11-20T15:09:56.327Z,5.83
2018-11-20T15:12:58.518Z,5.60
2018-11-20T15:15:53.845Z,7.10
2018-11-20T15:18:46.367Z,7.33
2018-11-20T15:21:50.928Z,6.73
2018-11-20T15:24:48.449Z,6.80
2018-11-20T15:27:31.220Z,6.30
2018-11-20T15:30:19.521Z,6.37
2018-11-20T15:33:03.303Z,6.77
2018-11-20T15:35:52.935Z,6.70
2018-11-20T15:38:52.369Z,6.83
2018-11-20T15:41:34.138Z,7.43
2018-11-20T15:44:32.821Z,7.50
2018-11-20T15:47:22.309Z,7.57
2018-11-20T15:50:10.173Z,7.10
2018-11-20T15:53:07.054Z,6.97
2018-11-20T15:56:02.309Z,6.23
2018-11-20T15:59:00.775Z,6.60
2018-11-20T16:02:00.140Z,6.57
2018-11-20T16:04:48.347Z,6.83
2018-11-20T16:07:40.349Z,7.13
2018-11-20T16:10:43.530Z,6.47
2018-11-20T16:13:36.129Z,7.80
2018-11-20T16:16:25.800Z,15.07
2018-11-20T16:19:13.540Z,7.67
2018-11-20T16:22:17.301Z,7.60
2018-11-20T16:25:08.210Z,7.33
2018-11-20T16:28:02.207Z,7.40
2018-11-20T16:30:50.966Z,8.17
2018-11-20T16:33:51.164Z,7.83
2018-11-20T16:36:39.444Z,7.70
2018-11-20T16:39:35.366Z,7.20
2018-11-20T16:42:23.581Z,8.47
2018-11-20T16:45:22.406Z,8.47
2018-11-20T16:48:23.768Z,9.87
2018-11-20T16:51:11.891Z,8.93
2018-11-20T16:54:01.461Z,9.03
2018-11-20T16:56:56.770Z,9.50
2018-11-20T17:00:01.434Z,9.20
2018-11-20T17:02:59.620Z,9.33
2018-11-20T17:05:47.820Z,10.00
2018-11-20T17:08:43.205Z,10.73
2018-11-20T17:11:41.973Z,10.67
2018-11-20T17:14:31.502Z,11.40
2018-11-20T17:17:19.767Z,21.23
2018-11-20T17:20:18.457Z,12.37
2018-11-20T17:23:19.819Z,11.83
2018-11-20T17:26:11.883Z,12.17
2018-11-20T17:28:59.932Z,12.20
2018-11-20T17:32:00.920Z,12.57
2018-11-20T17:34:59.320Z,11.37
2018-11-20T17:38:04.358Z,12.10
2018-11-20T17:41:05.985Z,12.50
2018-11-20T17:43:55.565Z,13.77
2018-11-20T17:46:50.379Z,13.67
2018-11-20T17:49:38.702Z,14.00
2018-11-20T17:52:29.098Z,14.07
2018-11-20T17:55:17.296Z,14.57
2018-11-20T17:58:09.814Z,13.60
2018-11-20T18:01:17.747Z,14.00
2018-11-20T18:04:05.707Z,13.53
2018-11-20T18:06:47.245Z,13.27
2018-11-20T18:09:35.215Z,13.00
2018-11-20T18:12:23.129Z,19.80
2018-11-20T18:15:31.760Z,12.87
2018-11-20T18:18:24.180Z,12.87
2018-11-20T18:21:16.628Z,12.23
2018-11-20T18:24:24.443Z,13.27
2018-11-20T18:27:20.023Z,12.30
2018-11-20T18:30:22.315Z,13.50
2018-11-20T18:33:26.899Z,13.27
2018-11-20T18:36:28.605Z,12.13
2018-11-20T18:39:16.871Z,12.67
2018-11-20T18:42:05.099Z,12.50
2018-11-20T18:44:53.038Z,12.97
2018-11-20T18:47:53.995Z,14.17
2018-11-20T18:50:49.265Z,13.17
2018-11-20T18:53:32.526Z,13.63
2018-11-20T18:56:40.195Z,11.77
2018-11-20T18:59:35.418Z,11.70
2018-11-20T19:02:25.256Z,23.63
2018-11-20T19:05:17.755Z,12.67
2018-11-20T19:08:07.303Z,12.30
2018-11-20T19:10:55.687Z,11.33
2018-11-20T19:14:01.162Z,11.63
2018-11-20T19:16:53.380Z,10.87
2018-11-20T19:19:46.881Z,12.20
2018-11-20T19:22:35.051Z,10.37
2018-11-20T19:25:30.427Z,11.40
2018-11-20T19:28:20.081Z,13.53
2018-11-20T19:31:08.927Z,14.73
2018-11-20T19:34:05.129Z,15.60
2018-11-20T19:36:54.056Z,14.17
2018-11-20T19:39:44.455Z,13.97
2018-11-20T19:42:33.570Z,14.97
2018-11-20T19:45:23.132Z,13.87
2018-11-20T19:48:14.007Z,13.43
2018-11-20T19:51:41.987Z,13.90
2018-11-20T19:54:30.646Z,14.77
2018-11-20T19:57:22.046Z,14.00
2018-11-20T20:00:17.127Z,15.20
2018-11-20T20:03:04.854Z,16.00
2018-11-20T20:06:04.514Z,13.40
2018-11-20T20:08:51.901Z,13.13
2018-11-20T20:11:43.406Z,13.73
2018-11-20T20:14:22.842Z,14.47
2018-11-20T20:17:19.219Z,15.57
2018-11-20T20:20:06.518Z,14.47
2018-11-20T20:23:13.582Z,13.17
2018-11-20T20:26:01.077Z,13.13
2018-11-20T20:28:52.487Z,12.87
2018-11-20T20:31:40.930Z,12.23
2018-11-20T20:34:28.339Z,16.67
2018-11-20T20:37:17.858Z,15.77
2018-11-20T20:40:19.524Z,15.27
2018-11-20T20:43:07.184Z,15.47
2018-11-20T20:45:54.623Z,15.60
2018-11-20T20:48:58.509Z,14.80
2018-11-20T20:51:50.217Z,14.53
2018-11-20T20:54:38.027Z,14.73
2018-11-20T20:57:42.634Z,15.13
2018-11-20T21:00:31.170Z,14.90
2018-11-20T21:03:35.052Z,72.50
2018-11-20T21:06:32.162Z,16.70
2018-11-20T21:09:19.340Z,14.97
2018-11-20T21:12:23.435Z,14.97
2018-11-20T21:15:12.137Z,15.77
2018-11-20T21:18:06.951Z,23.17
2018-11-20T21:21:15.581Z,17.97
2018-11-20T21:24:08.500Z,16.30
2018-11-20T21:26:54.965Z,18.50
2018-11-20T21:29:49.951Z,17.20
2018-11-20T21:32:32.815Z,19.17
2018-11-20T21:35:15.185Z,18.47
2018-11-20T21:38:00.589Z,17.17
2018-11-20T21:40:48.137Z,15.97
2018-11-20T21:43:43.419Z,17.10
2018-11-20T21:46:35.239Z,23.33
2018-11-20T21:49:30.155Z,15.80
2018-11-20T21:52:17.435Z,15.40
2018-11-20T21:55:15.543Z,15.67
2018-11-20T21:58:13.413Z,14.53
2018-11-20T22:01:26.248Z,15.30
2018-11-20T22:04:14.247Z,14.00
2018-11-20T22:07:11.943Z,13.93
2018-11-20T22:10:19.390Z,12.67
2018-11-20T22:13:06.638Z,12.80
2018-11-20T22:15:54.317Z,14.07
2018-11-20T22:18:41.675Z,14.63
2018-11-20T22:21:35.192Z,15.20
2018-11-20T22:24:28.335Z,14.83
2018-11-20T22:27:13.024Z,14.47
2018-11-20T22:29:59.764Z,14.43
2018-11-20T22:32:48.535Z,20.93
2018-11-20T22:35:38.235Z,20.70
2018-11-20T22:38:31.502Z,15.73
2018-11-20T22:41:38.273Z,14.40
2018-11-20T22:44:17.809Z,14.30
2018-11-20T22:47:18.935Z,14.97
2018-11-20T22:50:17.540Z,14.93
2018-11-20T22:53:07.047Z,14.83
2018-11-20T22:55:54.758Z,14.47
2018-11-20T22:58:43.437Z,15.23
2018-11-20T23:01:33.550Z,15.03
2018-11-20T23:04:22.781Z,15.13
2018-11-20T23:07:14.469Z,14.53
2018-11-20T23:09:45.023Z,13.23
2018-11-20T23:12:15.791Z,12.97
2018-11-20T23:14:45.418Z,14.00
2018-11-20T23:17:18.650Z,13.93
2018-11-20T23:19:48.416Z,14.33
2018-11-20T23:22:18.841Z,13.83
2018-11-20T23:24:48.465Z,13.40
2018-11-20T23:27:19.042Z,12.93
2018-11-20T23:29:49.517Z,13.47
2018-11-20T23:32:19.897Z,13.13
2018-11-20T23:34:49.460Z,14.17
2018-11-20T23:37:19.178Z,13.50
2018-11-20T23:39:48.751Z,13.40
2018-11-20T23:42:23.874Z,14.27
2018-11-20T23:44:50.102Z,13.63
2018-11-20T23:47:21.797Z,12.13
2018-11-20T23:49:51.417Z,12.50
2018-11-20T23:52:21.425Z,13.50
2018-11-20T23:54:51.969Z,11.70
2018-11-20T23:57:21.706Z,11.43
2018-11-20T23:59:52.074Z,11.77
